Fairview, Kentucky
Current Conditions -  °F | °C
As of 7:12 AM on Thursday 27 Nov 2014 (Local Time) from KHOP Reporting Station
Overcast Overcast  
Wind Chill: 29°   Ceiling: 1700
Heat Index: 34°   Visibility: 10mi
Dew Point: 32°   Wind: 6mph
Humidity: 93%   Direction: 320°NW
Pressure: 30.34"   Gusts: NA
Location:  36.84°N, 87.3°W
Report Text: KHOP 271312Z AUTO 32005KT 10SM SCT012 BKN017 OVC041 01/00 A3034 RMK AO2 CIG 011V017
Loading
Personal Weather Stations






























Interactive Weather Map New forecast layout! Learn more

10-Day Weather Forecast

Advertisements
Track Severe Weather on mobile